createdAt,value
2023-03-24T00:01:58.655Z,98697.97
2023-03-24T00:04:25.443Z,98689.59
2023-03-24T00:06:54.035Z,98698.94
2023-03-24T00:09:20.716Z,98690.50
2023-03-24T00:11:48.628Z,98679.94
2023-03-24T00:14:18.617Z,98681.06
2023-03-24T00:16:46.741Z,98674.00
2023-03-24T00:19:17.015Z,98669.63
2023-03-24T00:21:44.461Z,98664.84
2023-03-24T00:24:12.688Z,98659.88
2023-03-24T00:26:41.096Z,98652.59
2023-03-24T00:29:09.728Z,98646.41
2023-03-24T00:31:40.004Z,98636.75
2023-03-24T00:34:08.781Z,98635.38
2023-03-24T00:36:37.312Z,98626.28
2023-03-24T00:39:06.128Z,98612.81
2023-03-24T00:41:33.839Z,98609.56
2023-03-24T00:44:03.800Z,98600.97
2023-03-24T00:46:30.865Z,98594.34
2023-03-24T00:49:05.665Z,98590.97
2023-03-24T00:51:35.815Z,98566.22
2023-03-24T00:54:02.917Z,98576.53
2023-03-24T00:56:35.843Z,98571.38
2023-03-24T00:59:03.437Z,98553.81
2023-03-24T01:01:37.717Z,98565.53
2023-03-24T01:04:06.208Z,98539.31
2023-03-24T01:06:36.565Z,98549.66
2023-03-24T01:09:05.544Z,98540.72
2023-03-24T01:11:38.602Z,98535.63
2023-03-24T01:14:06.165Z,98527.06
2023-03-24T01:16:32.968Z,98536.97
2023-03-24T01:19:00.549Z,98524.66
2023-03-24T01:21:27.223Z,98528.19
2023-03-24T01:23:54.536Z,98515.00
2023-03-24T01:26:21.414Z,98512.31
2023-03-24T01:28:48.443Z,98504.09
2023-03-24T01:31:17.396Z,98504.56
2023-03-24T01:33:44.235Z,98492.94
2023-03-24T01:36:11.562Z,98491.47
2023-03-24T01:38:38.608Z,98483.91
2023-03-24T01:41:06.283Z,98479.56
2023-03-24T01:43:37.391Z,98471.78
2023-03-24T01:46:15.447Z,98467.00
2023-03-24T01:48:46.625Z,98466.13
2023-03-24T01:51:27.228Z,98466.28
2023-03-24T01:54:01.912Z,98452.84
2023-03-24T01:56:33.239Z,98440.38
2023-03-24T01:59:04.420Z,98436.91
2023-03-24T02:01:40.814Z,98438.28
2023-03-24T02:04:39.648Z,98430.19
2023-03-24T02:07:18.613Z,98417.41
2023-03-24T02:09:46.170Z,98408.94
2023-03-24T02:12:13.696Z,98398.31
2023-03-24T02:14:41.798Z,98412.19
2023-03-24T02:17:11.526Z,98398.88
2023-03-24T02:20:05.596Z,98387.28
2023-03-24T02:22:50.829Z,98393.91
2023-03-24T02:25:57.519Z,98382.88
2023-03-24T02:28:30.262Z,98390.44
2023-03-24T02:31:24.903Z,98388.66
2023-03-24T02:34:16.607Z,98372.50
2023-03-24T02:36:49.690Z,98363.84
2023-03-24T02:39:38.183Z,98369.31
2023-03-24T02:42:45.328Z,98360.22
2023-03-24T02:45:37.631Z,98368.25
2023-03-24T02:48:21.380Z,98362.91
2023-03-24T02:50:58.893Z,98354.56
2023-03-24T02:53:42.455Z,98346.53
2023-03-24T02:56:31.817Z,98324.19
2023-03-24T02:59:11.182Z,98332.50
2023-03-24T03:01:54.121Z,98352.50
2023-03-24T03:04:54.929Z,98326.78
2023-03-24T03:07:25.070Z,98315.25
2023-03-24T03:10:08.691Z,98310.56
2023-03-24T03:12:37.568Z,98307.09
2023-03-24T03:15:08.537Z,98297.41
2023-03-24T03:17:41.935Z,98296.63
2023-03-24T03:20:18.420Z,98282.88
2023-03-24T03:22:51.776Z,98288.81
2023-03-24T03:25:24.581Z,98283.66
2023-03-24T03:27:53.501Z,98278.06
2023-03-24T03:30:42.152Z,98274.63
2023-03-24T03:33:27.805Z,98282.59
2023-03-24T03:36:28.541Z,98260.47
2023-03-24T03:39:02.671Z,98265.47
2023-03-24T03:41:31.848Z,98258.88
2023-03-24T03:43:58.604Z,98245.44
2023-03-24T03:46:25.891Z,98242.72
2023-03-24T03:48:53.235Z,98241.63
2023-03-24T03:51:19.979Z,98243.34
2023-03-24T03:53:58.416Z,98225.38
2023-03-24T03:56:28.220Z,98229.03
2023-03-24T03:59:35.035Z,98234.00
2023-03-24T04:02:27.916Z,98232.91
2023-03-24T04:05:10.752Z,98232.13
2023-03-24T04:07:58.204Z,98227.56
2023-03-24T04:10:54.576Z,98234.53
2023-03-24T04:13:24.506Z,98227.28
2023-03-24T04:16:35.527Z,98221.75
2023-03-24T04:19:16.688Z,98216.06
2023-03-24T04:21:53.987Z,98204.22
2023-03-24T04:24:40.463Z,98200.47
2023-03-24T04:27:27.155Z,98220.47
2023-03-24T04:30:03.317Z,98211.13
2023-03-24T04:33:10.441Z,98208.59
2023-03-24T04:35:44.064Z,98198.97
2023-03-24T04:38:25.940Z,98203.03
2023-03-24T04:41:13.648Z,98193.91
2023-03-24T04:43:41.930Z,98186.44
2023-03-24T04:46:11.018Z,98181.09
2023-03-24T04:48:58.432Z,98193.41
2023-03-24T04:51:31.627Z,98181.84
2023-03-24T04:54:04.528Z,98184.13
2023-03-24T04:56:47.945Z,98172.63
2023-03-24T04:59:25.783Z,98173.19
2023-03-24T05:01:52.731Z,98178.88
2023-03-24T05:04:37.583Z,98174.34
2023-03-24T05:07:17.735Z,98176.28
2023-03-24T05:09:47.728Z,98161.81
2023-03-24T05:12:14.850Z,98165.84
2023-03-24T05:15:06.480Z,98163.69
2023-03-24T05:17:34.154Z,98165.81
2023-03-24T05:20:01.545Z,98159.38
2023-03-24T05:22:28.178Z,98166.06
2023-03-24T05:24:54.864Z,98147.84
2023-03-24T05:27:21.487Z,98138.69
2023-03-24T05:29:48.444Z,98159.91
2023-03-24T05:32:21.461Z,98156.97
2023-03-24T05:34:48.356Z,98166.38
2023-03-24T05:37:17.476Z,98174.66
2023-03-24T05:39:48.533Z,98178.66
2023-03-24T05:42:38.111Z,98188.09
2023-03-24T05:45:06.552Z,98192.38
2023-03-24T05:47:33.347Z,98199.34
2023-03-24T05:50:00.177Z,98193.94
2023-03-24T05:52:28.918Z,98217.00
2023-03-24T05:55:10.352Z,98208.16
2023-03-24T05:57:38.474Z,98213.97
2023-03-24T06:00:23.466Z,98213.97
2023-03-24T06:03:07.703Z,98224.97
2023-03-24T06:05:41.683Z,98232.22
2023-03-24T06:08:09.968Z,98232.44
2023-03-24T06:10:37.348Z,98233.72
2023-03-24T06:13:04.651Z,98234.50
2023-03-24T06:15:33.213Z,98249.66
2023-03-24T06:18:24.216Z,98260.88
2023-03-24T06:20:51.036Z,98260.06
2023-03-24T06:23:25.984Z,98269.63
2023-03-24T06:26:14.293Z,98266.97
2023-03-24T06:28:54.671Z,98287.59
2023-03-24T06:31:23.994Z,98287.84
2023-03-24T06:33:52.369Z,98283.13
2023-03-24T06:36:19.556Z,98295.44
2023-03-24T06:38:46.581Z,98306.69
2023-03-24T06:41:18.777Z,98320.06
2023-03-24T06:43:48.315Z,98327.03
2023-03-24T06:46:18.461Z,98328.13
2023-03-24T06:48:47.083Z,98338.03
2023-03-24T06:51:13.909Z,98343.66
2023-03-24T06:53:41.482Z,98357.88
2023-03-24T06:56:08.364Z,98367.03
2023-03-24T06:58:40.902Z,98372.72
2023-03-24T07:01:11.447Z,98377.75
2023-03-24T07:03:54.701Z,98383.75
2023-03-24T07:06:59.901Z,98393.50
2023-03-24T07:09:33.656Z,98409.19
2023-03-24T07:12:02.236Z,98407.91
2023-03-24T07:14:29.025Z,98437.69
2023-03-24T07:16:57.080Z,98444.38
2023-03-24T07:19:42.764Z,98474.88
2023-03-24T07:22:42.107Z,98479.50
2023-03-24T07:25:34.797Z,98484.69
2023-03-24T07:28:33.884Z,98491.59
2023-03-24T07:31:04.755Z,98510.22
2023-03-24T07:33:32.000Z,98521.00
2023-03-24T07:35:59.508Z,98517.25
2023-03-24T07:38:26.786Z,98512.72
2023-03-24T07:41:00.999Z,98537.47
2023-03-24T07:43:30.464Z,98540.22
2023-03-24T07:46:17.129Z,98545.25
2023-03-24T07:48:43.991Z,98537.16
2023-03-24T07:51:11.099Z,98549.44
2023-03-24T07:53:59.326Z,98551.56
2023-03-24T07:56:32.333Z,98568.75
2023-03-24T07:59:01.402Z,98562.09
2023-03-24T08:01:38.474Z,98580.56
2023-03-24T08:04:12.481Z,98587.09
2023-03-24T08:06:58.653Z,98594.53
2023-03-24T08:09:25.618Z,98590.97
2023-03-24T08:11:52.415Z,98594.94
2023-03-24T08:14:19.138Z,98620.34
2023-03-24T08:16:46.441Z,98629.59
2023-03-24T08:19:13.197Z,98640.31
2023-03-24T08:21:39.886Z,98631.06
2023-03-24T08:24:06.977Z,98625.22
2023-03-24T08:26:35.496Z,98626.78
2023-03-24T08:29:03.162Z,98624.50
2023-03-24T08:31:33.936Z,98626.13
2023-03-24T08:34:00.787Z,98633.25
2023-03-24T08:36:27.644Z,98638.19
2023-03-24T08:38:55.734Z,98649.44
2023-03-24T08:41:34.803Z,98650.84
2023-03-24T08:44:07.202Z,98676.50
2023-03-24T08:46:34.764Z,98681.47
2023-03-24T08:49:04.491Z,98692.81
2023-03-24T08:51:31.752Z,98697.31
2023-03-24T08:53:58.686Z,98709.59
2023-03-24T08:56:25.988Z,98711.00
2023-03-24T08:58:53.935Z,98718.66
2023-03-24T09:01:21.541Z,98718.31
2023-03-24T09:03:48.818Z,98717.25
2023-03-24T09:06:15.987Z,98732.06
2023-03-24T09:08:42.778Z,98723.50
2023-03-24T09:11:16.916Z,98733.44
2023-03-24T09:13:43.627Z,98733.97
2023-03-24T09:16:10.742Z,98732.91
2023-03-24T09:18:37.680Z,98750.41
2023-03-24T09:21:05.997Z,98737.94
2023-03-24T09:23:32.718Z,98745.31
2023-03-24T09:26:00.204Z,98733.97
2023-03-24T09:28:26.927Z,98729.00
2023-03-24T09:31:01.381Z,98723.50
2023-03-24T09:33:29.966Z,98730.00
2023-03-24T09:36:00.086Z,98725.53
2023-03-24T09:38:28.651Z,98717.22
2023-03-24T09:40:58.017Z,98727.47
2023-03-24T09:43:33.074Z,98740.06
2023-03-24T09:46:02.090Z,98749.41
2023-03-24T09:48:47.382Z,98749.19
2023-03-24T09:51:25.435Z,98748.78
2023-03-24T09:54:05.287Z,98744.50
2023-03-24T09:56:34.062Z,98743.25
2023-03-24T09:59:12.702Z,98747.19
2023-03-24T10:01:39.389Z,98737.72
2023-03-24T10:04:14.658Z,98735.31
2023-03-24T10:06:42.530Z,98744.06
2023-03-24T10:09:23.973Z,98762.84
2023-03-24T10:12:21.913Z,98754.81
2023-03-24T10:15:07.278Z,98765.88
2023-03-24T10:17:39.974Z,98765.88
2023-03-24T10:20:24.356Z,98765.53
2023-03-24T10:23:08.825Z,98769.47
2023-03-24T10:26:05.935Z,98778.47
2023-03-24T10:28:41.553Z,98782.38
2023-03-24T10:31:12.072Z,98782.28
2023-03-24T10:33:42.695Z,98794.03
2023-03-24T10:36:21.152Z,98791.06
2023-03-24T10:38:48.137Z,98792.69
2023-03-24T10:41:26.040Z,98795.22
2023-03-24T10:43:54.310Z,98807.72
2023-03-24T10:46:24.736Z,98814.34
2023-03-24T10:49:19.848Z,98819.19
2023-03-24T10:51:49.598Z,98818.56
2023-03-24T10:54:27.029Z,98818.75
2023-03-24T10:57:03.743Z,98825.78
2023-03-24T10:59:38.470Z,98830.50
2023-03-24T11:02:17.262Z,98833.41
2023-03-24T11:04:55.162Z,98829.41
2023-03-24T11:07:23.700Z,98838.22
2023-03-24T11:10:19.097Z,98836.81
2023-03-24T11:12:54.933Z,98841.28
2023-03-24T11:15:30.562Z,98850.53
2023-03-24T11:18:12.709Z,98848.38
2023-03-24T11:20:41.565Z,98853.94
2023-03-24T11:23:19.960Z,98852.41
2023-03-24T11:26:23.138Z,98851.97
2023-03-24T11:28:53.581Z,98864.84
2023-03-24T11:31:32.933Z,98864.25
2023-03-24T11:34:03.695Z,98861.53
2023-03-24T11:36:30.728Z,98864.84
2023-03-24T11:39:17.917Z,98861.81
2023-03-24T11:42:03.430Z,98857.84
2023-03-24T11:44:33.127Z,98853.16
2023-03-24T11:47:05.027Z,98854.03
2023-03-24T11:49:42.226Z,98856.47
2023-03-24T11:52:18.387Z,98860.75
2023-03-24T11:54:45.265Z,98867.13
2023-03-24T11:57:13.945Z,98869.06
2023-03-24T11:59:40.584Z,98869.63
2023-03-24T12:02:28.869Z,98869.91
2023-03-24T12:05:16.984Z,98849.72
2023-03-24T12:07:49.807Z,98850.50
2023-03-24T12:10:19.431Z,98858.00
2023-03-24T12:12:58.481Z,98855.75
2023-03-24T12:15:36.808Z,98858.44
2023-03-24T12:18:42.436Z,98855.91
2023-03-24T12:21:29.721Z,98858.00
2023-03-24T12:23:58.241Z,98860.00
2023-03-24T12:26:28.198Z,98858.59
2023-03-24T12:28:58.323Z,98875.72
2023-03-24T12:31:32.859Z,98865.81
2023-03-24T12:34:08.083Z,98873.00
2023-03-24T12:36:53.076Z,98864.00
2023-03-24T12:39:29.360Z,98867.31
2023-03-24T12:42:10.862Z,98859.28
2023-03-24T12:44:43.631Z,98853.59
2023-03-24T12:47:47.452Z,98855.19
2023-03-24T12:50:49.691Z,98861.59
2023-03-24T12:53:25.620Z,98842.22
2023-03-24T12:55:58.459Z,98850.44
2023-03-24T12:59:06.513Z,98835.34
2023-03-24T13:01:35.799Z,98847.97
2023-03-24T13:04:17.479Z,98858.06
2023-03-24T13:06:58.642Z,98854.09
2023-03-24T13:09:47.903Z,98861.97
2023-03-24T13:12:21.365Z,98864.56
2023-03-24T13:15:09.590Z,98858.34
2023-03-24T13:17:42.801Z,98855.00
2023-03-24T13:20:17.200Z,98853.03
2023-03-24T13:22:44.368Z,98866.03
2023-03-24T13:25:32.709Z,98859.72
2023-03-24T13:28:04.426Z,98855.78
2023-03-24T13:30:32.365Z,98858.72
2023-03-24T13:33:17.499Z,98862.34
2023-03-24T13:36:02.457Z,98856.34
2023-03-24T13:38:29.102Z,98860.56
2023-03-24T13:40:56.452Z,98857.00
2023-03-24T13:43:25.463Z,98862.97
2023-03-24T13:45:59.483Z,98854.34
2023-03-24T13:48:33.550Z,98855.94
2023-03-24T13:51:12.422Z,98852.75
2023-03-24T13:54:01.165Z,98857.09
2023-03-24T13:56:37.842Z,98865.47
2023-03-24T13:59:10.383Z,98882.34
2023-03-24T14:01:45.411Z,98896.03
2023-03-24T14:04:44.963Z,98873.28
2023-03-24T14:07:30.719Z,98859.53
2023-03-24T14:10:00.176Z,98860.09
2023-03-24T14:12:27.347Z,98850.56
2023-03-24T14:15:19.290Z,98854.13
2023-03-24T14:17:48.229Z,98854.50
2023-03-24T14:20:32.657Z,98856.19
2023-03-24T14:22:59.496Z,98849.81
2023-03-24T14:25:30.992Z,98851.94
2023-03-24T14:28:20.037Z,98850.94
2023-03-24T14:31:18.362Z,98843.63
2023-03-24T14:34:02.321Z,98842.31
2023-03-24T14:36:31.447Z,98845.78
2023-03-24T14:39:17.753Z,98836.31
2023-03-24T14:41:45.495Z,98839.03
2023-03-24T14:44:12.668Z,98840.25
2023-03-24T14:46:47.560Z,98841.03
2023-03-24T14:49:23.639Z,98842.97
2023-03-24T14:52:11.542Z,98835.78
2023-03-24T14:54:47.785Z,98841.56
2023-03-24T14:57:39.373Z,98843.75
2023-03-24T15:00:15.761Z,98840.47
2023-03-24T15:02:47.313Z,98844.59
2023-03-24T15:05:13.939Z,98845.56
2023-03-24T15:07:41.922Z,98846.78
2023-03-24T15:10:19.217Z,98843.53
2023-03-24T15:12:47.905Z,98838.44
2023-03-24T15:15:21.389Z,98840.09
2023-03-24T15:17:51.424Z,98843.63
2023-03-24T15:20:35.180Z,98838.38
2023-03-24T15:23:07.604Z,98837.03
2023-03-24T15:25:34.361Z,98842.19
2023-03-24T15:28:12.927Z,98832.69
2023-03-24T15:30:39.669Z,98834.88
2023-03-24T15:33:06.585Z,98844.16
2023-03-24T15:35:35.897Z,98852.59
2023-03-24T15:38:04.059Z,98870.34
2023-03-24T15:40:32.479Z,98885.84
2023-03-24T15:43:08.009Z,98900.06
2023-03-24T15:45:44.505Z,98892.19
2023-03-24T15:48:17.273Z,98896.72
2023-03-24T15:51:05.399Z,98882.75
2023-03-24T15:53:43.995Z,98875.19
2023-03-24T15:56:36.301Z,98879.47
2023-03-24T15:59:06.009Z,98872.03
2023-03-24T16:01:36.478Z,98858.31
2023-03-24T16:04:08.350Z,98856.94
2023-03-24T16:06:35.931Z,98850.75
2023-03-24T16:09:09.499Z,98848.19
2023-03-24T16:11:36.276Z,98833.31
2023-03-24T16:14:17.413Z,98825.28
2023-03-24T16:16:44.401Z,98822.25
2023-03-24T16:19:11.141Z,98817.38
2023-03-24T16:21:37.793Z,98819.94
2023-03-24T16:24:04.750Z,98827.47
2023-03-24T16:26:32.829Z,98815.16
2023-03-24T16:29:20.601Z,98817.88
2023-03-24T16:31:49.446Z,98813.09
2023-03-24T16:34:25.593Z,98810.34
2023-03-24T16:36:54.308Z,98811.75
2023-03-24T16:39:23.839Z,98814.50
2023-03-24T16:41:51.118Z,98814.19
2023-03-24T16:44:21.143Z,98822.50
2023-03-24T16:46:51.227Z,98816.56
2023-03-24T16:49:22.884Z,98817.47
2023-03-24T16:51:50.186Z,98812.34
2023-03-24T16:54:17.052Z,98818.78
2023-03-24T16:56:43.768Z,98827.44
2023-03-24T16:59:12.540Z,98825.97
2023-03-24T17:01:41.608Z,98823.03
2023-03-24T17:04:13.219Z,98823.88
2023-03-24T17:06:42.740Z,98830.50
2023-03-24T17:09:10.101Z,98833.50
2023-03-24T17:11:42.274Z,98839.81
2023-03-24T17:14:12.395Z,98842.16
2023-03-24T17:16:43.685Z,98838.25
2023-03-24T17:19:15.452Z,98830.84
2023-03-24T17:21:45.954Z,98827.44
2023-03-24T17:24:13.665Z,98829.03
2023-03-24T17:26:41.292Z,98823.34
2023-03-24T17:29:11.399Z,98816.44
2023-03-24T17:31:38.160Z,98810.81
2023-03-24T17:34:15.116Z,98816.59
2023-03-24T17:36:51.839Z,98821.44
2023-03-24T17:39:19.768Z,98821.31
2023-03-24T17:41:46.432Z,98819.63
2023-03-24T17:44:13.249Z,98818.19
2023-03-24T17:46:39.968Z,98811.81
2023-03-24T17:49:06.920Z,98803.81
2023-03-24T17:51:34.113Z,98803.47
2023-03-24T17:54:04.204Z,98805.31
2023-03-24T17:56:31.328Z,98812.94
2023-03-24T17:58:59.557Z,98820.31
2023-03-24T18:01:29.441Z,98822.09
2023-03-24T18:03:57.669Z,98820.75
2023-03-24T18:06:24.884Z,98825.34
2023-03-24T18:08:52.179Z,98817.81
2023-03-24T18:11:18.953Z,98821.84
2023-03-24T18:13:45.727Z,98826.41
2023-03-24T18:16:21.485Z,98823.34
2023-03-24T18:18:50.323Z,98823.56
2023-03-24T18:21:17.645Z,98829.72
2023-03-24T18:23:46.680Z,98832.97
2023-03-24T18:26:15.809Z,98829.03
2023-03-24T18:28:42.943Z,98823.19
2023-03-24T18:31:15.746Z,98835.72
2023-03-24T18:33:46.011Z,98833.13
2023-03-24T18:36:16.512Z,98833.13
2023-03-24T18:38:44.096Z,98829.03
2023-03-24T18:41:12.916Z,98834.81
2023-03-24T18:43:44.957Z,98831.25
2023-03-24T18:46:11.834Z,98828.75
2023-03-24T18:48:40.174Z,98830.09
2023-03-24T18:51:06.854Z,98831.97
2023-03-24T18:53:36.980Z,98831.13
2023-03-24T18:56:05.463Z,98844.31
2023-03-24T18:58:32.322Z,98831.63
2023-03-24T19:01:01.137Z,98822.38
2023-03-24T19:03:28.909Z,98814.97
2023-03-24T19:06:00.776Z,98815.47
2023-03-24T19:08:27.663Z,98820.31
2023-03-24T19:10:54.979Z,98819.31
2023-03-24T19:13:21.623Z,98823.25
2023-03-24T19:15:49.129Z,98813.56
2023-03-24T19:18:16.192Z,98809.19
2023-03-24T19:20:43.003Z,98805.88
2023-03-24T19:23:09.736Z,98800.47
2023-03-24T19:25:36.466Z,98796.63
2023-03-24T19:28:03.288Z,98784.25
2023-03-24T19:30:29.968Z,98790.25
2023-03-24T19:32:56.939Z,98795.72
2023-03-24T19:35:24.331Z,98795.63
2023-03-24T19:37:51.069Z,98797.50
2023-03-24T19:40:17.946Z,98797.56
2023-03-24T19:42:45.110Z,98800.44
2023-03-24T19:45:16.293Z,98798.53
2023-03-24T19:47:46.233Z,98796.22
2023-03-24T19:50:14.820Z,98800.16
2023-03-24T19:52:46.049Z,98780.25
2023-03-24T19:55:12.894Z,98786.69
2023-03-24T19:57:39.814Z,98793.28
2023-03-24T20:00:10.243Z,98780.91
2023-03-24T20:02:38.242Z,98773.22
2023-03-24T20:05:06.936Z,98781.22
2023-03-24T20:07:34.871Z,98779.66
2023-03-24T20:10:01.551Z,98780.13
2023-03-24T20:12:28.359Z,98764.25
2023-03-24T20:14:55.073Z,98779.66
2023-03-24T20:17:23.058Z,98771.06
2023-03-24T20:19:50.741Z,98779.59
2023-03-24T20:22:17.667Z,98763.34
2023-03-24T20:24:44.612Z,98762.47
2023-03-24T20:27:11.756Z,98757.53
2023-03-24T20:29:39.924Z,98770.41
2023-03-24T20:32:10.075Z,98761.97
2023-03-24T20:34:38.235Z,98764.38
2023-03-24T20:37:05.725Z,98758.41
2023-03-24T20:39:33.490Z,98768.69
2023-03-24T20:42:00.933Z,98777.13
2023-03-24T20:44:28.054Z,98777.44
2023-03-24T20:46:57.193Z,98772.91
2023-03-24T20:49:24.425Z,98772.63
2023-03-24T20:51:51.594Z,98763.66
2023-03-24T20:54:18.316Z,98765.22
2023-03-24T20:56:45.980Z,98759.91
2023-03-24T20:59:13.797Z,98751.22
2023-03-24T21:01:41.988Z,98752.19
2023-03-24T21:04:10.084Z,98743.00
2023-03-24T21:06:40.648Z,98732.06
2023-03-24T21:09:07.306Z,98733.19
2023-03-24T21:11:36.883Z,98736.47
2023-03-24T21:14:03.800Z,98734.34
2023-03-24T21:16:35.804Z,98734.75
2023-03-24T21:19:03.764Z,98724.63
2023-03-24T21:21:32.157Z,98729.00
2023-03-24T21:23:59.302Z,98721.41
2023-03-24T21:26:26.018Z,98718.06
2023-03-24T21:28:53.070Z,98709.31
2023-03-24T21:31:21.625Z,98710.06
2023-03-24T21:33:49.213Z,98716.94
2023-03-24T21:36:16.746Z,98714.97
2023-03-24T21:38:43.453Z,98714.91
2023-03-24T21:41:11.543Z,98717.00
2023-03-24T21:43:40.387Z,98712.94
2023-03-24T21:46:14.763Z,98715.03
2023-03-24T21:48:51.466Z,98702.13
2023-03-24T21:51:19.793Z,98700.84
2023-03-24T21:53:47.683Z,98697.38
2023-03-24T21:56:14.742Z,98700.28
2023-03-24T21:58:41.629Z,98696.78
2023-03-24T22:01:09.048Z,98685.00
2023-03-24T22:03:37.449Z,98690.28
2023-03-24T22:06:05.623Z,98689.19
2023-03-24T22:08:32.524Z,98676.59
2023-03-24T22:11:01.063Z,98687.78
2023-03-24T22:13:28.763Z,98680.53
2023-03-24T22:15:57.298Z,98678.41
2023-03-24T22:18:25.591Z,98683.06
2023-03-24T22:20:55.337Z,98674.06
2023-03-24T22:23:22.949Z,98680.97
2023-03-24T22:25:52.631Z,98672.81
2023-03-24T22:28:20.093Z,98676.84
2023-03-24T22:30:46.940Z,98673.28
2023-03-24T22:33:13.795Z,98673.19
2023-03-24T22:35:40.866Z,98674.44
2023-03-24T22:38:07.858Z,98684.44
2023-03-24T22:40:35.377Z,98682.81
2023-03-24T22:43:02.016Z,98684.31
2023-03-24T22:45:28.661Z,98677.50
2023-03-24T22:47:55.524Z,98671.63
2023-03-24T22:50:22.481Z,98670.81
2023-03-24T22:52:49.124Z,98676.69
2023-03-24T22:55:15.998Z,98675.53
2023-03-24T22:57:44.645Z,98683.16
2023-03-24T23:00:14.697Z,98678.72
2023-03-24T23:02:41.558Z,98663.19
2023-03-24T23:05:08.558Z,98676.38
2023-03-24T23:07:35.359Z,98671.63
2023-03-24T23:10:02.137Z,98670.16
2023-03-24T23:12:29.098Z,98671.88
2023-03-24T23:14:56.004Z,98672.97
2023-03-24T23:17:25.843Z,98670.47
2023-03-24T23:19:53.493Z,98669.41
2023-03-24T23:22:21.358Z,98667.53
2023-03-24T23:24:48.873Z,98677.63
2023-03-24T23:27:16.290Z,98676.72
2023-03-24T23:29:42.885Z,98666.44
2023-03-24T23:32:09.570Z,98667.81
2023-03-24T23:34:38.168Z,98667.75
2023-03-24T23:37:04.998Z,98671.25
2023-03-24T23:39:36.792Z,98671.41
2023-03-24T23:42:05.897Z,98667.84
2023-03-24T23:44:32.859Z,98678.53
2023-03-24T23:46:59.487Z,98676.13
2023-03-24T23:49:26.288Z,98670.00
2023-03-24T23:51:52.925Z,98671.69
2023-03-24T23:54:19.593Z,98680.06
2023-03-24T23:56:47.249Z,98684.38
2023-03-24T23:59:14.376Z,98673.44
